Archer, Iowa
Current Conditions -  °F | °C
As of 5:15 PM on Wednesday 26 Nov 2014 (Local Time) from KSHL Reporting Station
Overcast Overcast  
Wind Chill:   Ceiling: 1900
Heat Index: 18°   Visibility: 10mi
Dew Point: 12°   Wind: 18mph
Humidity: 79%   Direction: 330°NNW
Pressure: 30.31"   Gusts: NA
Location:  43.12°N, 95.75°W
Report Text: KSHL 262315Z AUTO 33016KT 10SM FEW012 OVC019 M08/M11 A3031 RMK AO2
Loading
Personal Weather Stations






























Interactive Weather Map New forecast layout! Learn more

10-Day Weather Forecast

Advertisements
Track Severe Weather on mobile